sensor_id;sensor_type;location;lat;lon;timestamp;P1;durP1;ratioP1;P2;durP2;ratioP2
51943;SDS011;37969;53.132;6.370;2023-08-12T00:02:23;10.05;;;6.32;;
51943;SDS011;37969;53.132;6.370;2023-08-12T00:04:50;8.52;;;6.63;;
51943;SDS011;37969;53.132;6.370;2023-08-12T00:07:16;10.82;;;6.68;;
51943;SDS011;37969;53.132;6.370;2023-08-12T00:09:42;12.23;;;6.80;;
51943;SDS011;37969;53.132;6.370;2023-08-12T00:12:08;8.18;;;6.13;;
51943;SDS011;37969;53.132;6.370;2023-08-12T00:14:34;10.95;;;6.30;;
51943;SDS011;37969;53.132;6.370;2023-08-12T00:17:01;10.07;;;5.65;;
51943;SDS011;37969;53.132;6.370;2023-08-12T00:19:27;8.63;;;5.70;;
51943;SDS011;37969;53.132;6.370;2023-08-12T00:21:53;8.93;;;5.30;;
51943;SDS011;37969;53.132;6.370;2023-08-12T00:24:20;10.23;;;5.90;;
51943;SDS011;37969;53.132;6.370;2023-08-12T00:26:46;8.13;;;6.22;;
51943;SDS011;37969;53.132;6.370;2023-08-12T00:29:12;15.63;;;6.95;;
51943;SDS011;37969;53.132;6.370;2023-08-12T00:31:38;8.20;;;6.43;;
51943;SDS011;37969;53.132;6.370;2023-08-12T00:34:04;8.68;;;6.40;;
51943;SDS011;37969;53.132;6.370;2023-08-12T00:36:30;9.18;;;5.85;;
51943;SDS011;37969;53.132;6.370;2023-08-12T00:38:56;13.40;;;7.20;;
51943;SDS011;37969;53.132;6.370;2023-08-12T00:41:23;11.35;;;6.35;;
51943;SDS011;37969;53.132;6.370;2023-08-12T00:43:49;11.38;;;5.95;;
51943;SDS011;37969;53.132;6.370;2023-08-12T00:46:15;10.50;;;6.18;;
51943;SDS011;37969;53.132;6.370;2023-08-12T00:48:41;10.63;;;7.43;;
51943;SDS011;37969;53.132;6.370;2023-08-12T00:51:07;10.73;;;6.35;;
51943;SDS011;37969;53.132;6.370;2023-08-12T00:53:34;11.43;;;6.95;;
51943;SDS011;37969;53.132;6.370;2023-08-12T00:56:00;9.25;;;6.60;;
51943;SDS011;37969;53.132;6.370;2023-08-12T00:58:26;8.63;;;5.97;;
51943;SDS011;37969;53.132;6.370;2023-08-12T01:00:52;7.90;;;6.30;;
51943;SDS011;37969;53.132;6.370;2023-08-12T01:03:19;12.15;;;7.00;;
51943;SDS011;37969;53.132;6.370;2023-08-12T01:05:46;8.57;;;5.68;;
51943;SDS011;37969;53.132;6.370;2023-08-12T01:08:12;9.80;;;6.65;;
51943;SDS011;37969;53.132;6.370;2023-08-12T01:10:39;8.88;;;6.85;;
51943;SDS011;37969;53.132;6.370;2023-08-12T01:13:16;11.30;;;7.22;;
51943;SDS011;37969;53.132;6.370;2023-08-12T01:15:45;12.35;;;7.20;;
51943;SDS011;37969;53.132;6.370;2023-08-12T01:18:12;11.80;;;6.63;;
51943;SDS011;37969;53.132;6.370;2023-08-12T01:20:39;9.02;;;6.85;;
51943;SDS011;37969;53.132;6.370;2023-08-12T01:23:08;11.40;;;6.90;;
51943;SDS011;37969;53.132;6.370;2023-08-12T01:25:34;12.32;;;7.05;;
51943;SDS011;37969;53.132;6.370;2023-08-12T01:28:00;12.98;;;6.93;;
51943;SDS011;37969;53.132;6.370;2023-08-12T01:30:26;8.88;;;6.40;;
51943;SDS011;37969;53.132;6.370;2023-08-12T01:33:01;9.40;;;6.38;;
51943;SDS011;37969;53.132;6.370;2023-08-12T01:35:30;12.13;;;7.63;;
51943;SDS011;37969;53.132;6.370;2023-08-12T01:37:59;14.30;;;6.88;;
51943;SDS011;37969;53.132;6.370;2023-08-12T01:40:27;10.32;;;6.80;;
51943;SDS011;37969;53.132;6.370;2023-08-12T01:42:54;9.00;;;6.13;;
51943;SDS011;37969;53.132;6.370;2023-08-12T01:45:20;13.93;;;7.28;;
51943;SDS011;37969;53.132;6.370;2023-08-12T01:47:46;8.88;;;6.35;;
51943;SDS011;37969;53.132;6.370;2023-08-12T01:50:15;10.13;;;6.13;;
51943;SDS011;37969;53.132;6.370;2023-08-12T01:52:41;8.32;;;6.43;;
51943;SDS011;37969;53.132;6.370;2023-08-12T01:55:07;8.80;;;6.45;;
51943;SDS011;37969;53.132;6.370;2023-08-12T01:57:34;9.68;;;5.68;;
51943;SDS011;37969;53.132;6.370;2023-08-12T02:00:01;11.98;;;6.70;;
51943;SDS011;37969;53.132;6.370;2023-08-12T02:02:27;12.00;;;6.32;;
51943;SDS011;37969;53.132;6.370;2023-08-12T02:04:53;13.98;;;7.57;;
51943;SDS011;37969;53.132;6.370;2023-08-12T02:07:19;11.85;;;7.53;;
51943;SDS011;37969;53.132;6.370;2023-08-12T02:09:45;10.25;;;7.30;;
51943;SDS011;37969;53.132;6.370;2023-08-12T02:12:12;10.75;;;7.05;;
51943;SDS011;37969;53.132;6.370;2023-08-12T02:14:38;15.80;;;7.70;;
51943;SDS011;37969;53.132;6.370;2023-08-12T02:17:04;10.40;;;7.30;;
51943;SDS011;37969;53.132;6.370;2023-08-12T02:19:31;16.88;;;8.18;;
51943;SDS011;37969;53.132;6.370;2023-08-12T02:21:58;16.73;;;7.22;;
51943;SDS011;37969;53.132;6.370;2023-08-12T02:24:25;13.57;;;8.05;;
51943;SDS011;37969;53.132;6.370;2023-08-12T02:26:51;12.98;;;8.10;;
51943;SDS011;37969;53.132;6.370;2023-08-12T02:29:17;13.70;;;8.77;;
51943;SDS011;37969;53.132;6.370;2023-08-12T02:31:43;18.00;;;8.98;;
51943;SDS011;37969;53.132;6.370;2023-08-12T02:34:09;13.55;;;8.70;;
51943;SDS011;37969;53.132;6.370;2023-08-12T02:36:36;15.85;;;9.40;;
51943;SDS011;37969;53.132;6.370;2023-08-12T02:39:02;17.60;;;10.45;;
51943;SDS011;37969;53.132;6.370;2023-08-12T02:41:30;14.88;;;9.65;;
51943;SDS011;37969;53.132;6.370;2023-08-12T02:43:56;16.85;;;10.43;;
51943;SDS011;37969;53.132;6.370;2023-08-12T02:46:22;15.13;;;9.65;;
51943;SDS011;37969;53.132;6.370;2023-08-12T02:48:50;16.73;;;10.55;;
51943;SDS011;37969;53.132;6.370;2023-08-12T02:51:16;14.75;;;10.00;;
51943;SDS011;37969;53.132;6.370;2023-08-12T02:53:42;14.98;;;10.32;;
51943;SDS011;37969;53.132;6.370;2023-08-12T02:56:08;12.80;;;9.82;;
51943;SDS011;37969;53.132;6.370;2023-08-12T02:58:35;15.40;;;9.77;;
51943;SDS011;37969;53.132;6.370;2023-08-12T03:01:02;18.65;;;10.18;;
51943;SDS011;37969;53.132;6.370;2023-08-12T03:03:29;16.05;;;9.68;;
51943;SDS011;37969;53.132;6.370;2023-08-12T03:05:56;15.45;;;9.73;;
51943;SDS011;37969;53.132;6.370;2023-08-12T03:08:22;19.02;;;10.32;;
51943;SDS011;37969;53.132;6.370;2023-08-12T03:10:48;16.42;;;10.45;;
51943;SDS011;37969;53.132;6.370;2023-08-12T03:13:14;15.98;;;11.45;;
51943;SDS011;37969;53.132;6.370;2023-08-12T03:15:40;16.67;;;11.23;;
51943;SDS011;37969;53.132;6.370;2023-08-12T03:18:08;13.90;;;10.02;;
51943;SDS011;37969;53.132;6.370;2023-08-12T03:20:34;16.17;;;11.18;;
51943;SDS011;37969;53.132;6.370;2023-08-12T03:23:00;19.13;;;11.90;;
51943;SDS011;37969;53.132;6.370;2023-08-12T03:25:26;15.82;;;10.50;;
51943;SDS011;37969;53.132;6.370;2023-08-12T03:27:52;15.20;;;11.80;;
51943;SDS011;37969;53.132;6.370;2023-08-12T03:30:18;15.65;;;11.20;;
51943;SDS011;37969;53.132;6.370;2023-08-12T03:32:44;25.40;;;12.52;;
51943;SDS011;37969;53.132;6.370;2023-08-12T03:35:11;19.58;;;11.63;;
51943;SDS011;37969;53.132;6.370;2023-08-12T03:37:37;22.15;;;13.18;;
51943;SDS011;37969;53.132;6.370;2023-08-12T03:40:03;25.63;;;12.10;;
51943;SDS011;37969;53.132;6.370;2023-08-12T03:42:29;17.83;;;11.70;;
51943;SDS011;37969;53.132;6.370;2023-08-12T03:44:55;18.25;;;11.35;;
51943;SDS011;37969;53.132;6.370;2023-08-12T03:47:21;22.50;;;12.05;;
51943;SDS011;37969;53.132;6.370;2023-08-12T03:49:49;19.65;;;12.68;;
51943;SDS011;37969;53.132;6.370;2023-08-12T03:52:15;21.40;;;10.95;;
51943;SDS011;37969;53.132;6.370;2023-08-12T03:54:42;16.50;;;12.18;;
51943;SDS011;37969;53.132;6.370;2023-08-12T03:57:08;24.55;;;12.40;;
51943;SDS011;37969;53.132;6.370;2023-08-12T03:59:34;19.48;;;13.25;;
51943;SDS011;37969;53.132;6.370;2023-08-12T04:02:00;19.17;;;12.30;;
51943;SDS011;37969;53.132;6.370;2023-08-12T04:04:27;19.17;;;12.77;;
51943;SDS011;37969;53.132;6.370;2023-08-12T04:06:53;22.50;;;13.63;;
51943;SDS011;37969;53.132;6.370;2023-08-12T04:09:19;22.08;;;14.38;;
51943;SDS011;37969;53.132;6.370;2023-08-12T04:11:46;18.80;;;13.70;;
51943;SDS011;37969;53.132;6.370;2023-08-12T04:14:13;23.10;;;13.02;;
51943;SDS011;37969;53.132;6.370;2023-08-12T04:16:39;20.88;;;12.98;;
51943;SDS011;37969;53.132;6.370;2023-08-12T04:19:05;20.63;;;13.20;;
51943;SDS011;37969;53.132;6.370;2023-08-12T04:21:32;22.17;;;13.88;;
51943;SDS011;37969;53.132;6.370;2023-08-12T04:23:58;20.45;;;13.00;;
51943;SDS011;37969;53.132;6.370;2023-08-12T04:26:24;24.50;;;13.73;;
51943;SDS011;37969;53.132;6.370;2023-08-12T04:28:50;22.15;;;14.25;;
51943;SDS011;37969;53.132;6.370;2023-08-12T04:31:16;17.98;;;13.32;;
51943;SDS011;37969;53.132;6.370;2023-08-12T04:33:42;19.67;;;13.63;;
51943;SDS011;37969;53.132;6.370;2023-08-12T04:36:08;22.33;;;13.88;;
51943;SDS011;37969;53.132;6.370;2023-08-12T04:38:34;22.00;;;14.77;;
51943;SDS011;37969;53.132;6.370;2023-08-12T04:41:01;19.80;;;13.65;;
51943;SDS011;37969;53.132;6.370;2023-08-12T04:43:27;22.65;;;14.38;;
51943;SDS011;37969;53.132;6.370;2023-08-12T04:45:53;23.55;;;13.50;;
51943;SDS011;37969;53.132;6.370;2023-08-12T04:48:19;19.70;;;13.13;;
51943;SDS011;37969;53.132;6.370;2023-08-12T04:50:46;17.48;;;13.40;;
51943;SDS011;37969;53.132;6.370;2023-08-12T04:53:12;21.77;;;12.70;;
51943;SDS011;37969;53.132;6.370;2023-08-12T04:55:38;16.40;;;13.50;;
51943;SDS011;37969;53.132;6.370;2023-08-12T04:58:04;17.77;;;12.35;;
51943;SDS011;37969;53.132;6.370;2023-08-12T05:00:30;17.65;;;12.88;;
51943;SDS011;37969;53.132;6.370;2023-08-12T05:02:57;18.98;;;13.05;;
51943;SDS011;37969;53.132;6.370;2023-08-12T05:05:25;20.67;;;12.32;;
51943;SDS011;37969;53.132;6.370;2023-08-12T05:07:51;19.27;;;13.10;;
51943;SDS011;37969;53.132;6.370;2023-08-12T05:10:17;19.38;;;12.50;;
51943;SDS011;37969;53.132;6.370;2023-08-12T05:12:43;18.60;;;12.30;;
51943;SDS011;37969;53.132;6.370;2023-08-12T05:15:10;17.77;;;12.70;;
51943;SDS011;37969;53.132;6.370;2023-08-12T05:17:36;20.55;;;12.00;;
51943;SDS011;37969;53.132;6.370;2023-08-12T05:20:03;15.50;;;11.63;;
51943;SDS011;37969;53.132;6.370;2023-08-12T05:22:29;16.90;;;13.00;;
51943;SDS011;37969;53.132;6.370;2023-08-12T05:24:55;14.82;;;11.57;;
51943;SDS011;37969;53.132;6.370;2023-08-12T05:27:21;20.08;;;12.90;;
51943;SDS011;37969;53.132;6.370;2023-08-12T05:29:48;17.05;;;13.50;;
51943;SDS011;37969;53.132;6.370;2023-08-12T05:32:14;17.42;;;12.82;;
51943;SDS011;37969;53.132;6.370;2023-08-12T05:34:40;19.92;;;13.00;;
51943;SDS011;37969;53.132;6.370;2023-08-12T05:37:06;15.77;;;11.57;;
51943;SDS011;37969;53.132;6.370;2023-08-12T05:39:32;15.70;;;12.82;;
51943;SDS011;37969;53.132;6.370;2023-08-12T05:41:59;18.15;;;13.40;;
51943;SDS011;37969;53.132;6.370;2023-08-12T05:44:25;21.92;;;12.73;;
51943;SDS011;37969;53.132;6.370;2023-08-12T05:46:51;20.55;;;12.23;;
51943;SDS011;37969;53.132;6.370;2023-08-12T05:49:17;18.30;;;12.10;;
51943;SDS011;37969;53.132;6.370;2023-08-12T05:51:43;18.90;;;12.07;;
51943;SDS011;37969;53.132;6.370;2023-08-12T05:54:10;17.48;;;11.38;;
51943;SDS011;37969;53.132;6.370;2023-08-12T05:56:36;26.23;;;13.43;;
51943;SDS011;37969;53.132;6.370;2023-08-12T05:59:02;16.65;;;12.25;;
51943;SDS011;37969;53.132;6.370;2023-08-12T06:01:28;20.88;;;13.43;;
51943;SDS011;37969;53.132;6.370;2023-08-12T06:03:54;23.50;;;13.73;;
51943;SDS011;37969;53.132;6.370;2023-08-12T06:06:20;20.10;;;14.25;;
51943;SDS011;37969;53.132;6.370;2023-08-12T06:08:48;27.45;;;13.98;;
51943;SDS011;37969;53.132;6.370;2023-08-12T06:11:14;20.02;;;12.63;;
51943;SDS011;37969;53.132;6.370;2023-08-12T06:13:40;21.95;;;14.30;;
51943;SDS011;37969;53.132;6.370;2023-08-12T06:16:06;17.15;;;13.20;;
51943;SDS011;37969;53.132;6.370;2023-08-12T06:18:33;23.88;;;14.00;;
51943;SDS011;37969;53.132;6.370;2023-08-12T06:21:00;21.67;;;12.85;;
51943;SDS011;37969;53.132;6.370;2023-08-12T06:23:26;19.38;;;14.13;;
51943;SDS011;37969;53.132;6.370;2023-08-12T06:25:52;26.15;;;15.15;;
51943;SDS011;37969;53.132;6.370;2023-08-12T06:28:18;23.58;;;15.27;;
51943;SDS011;37969;53.132;6.370;2023-08-12T06:30:45;26.73;;;15.75;;
51943;SDS011;37969;53.132;6.370;2023-08-12T06:33:13;22.42;;;14.65;;
51943;SDS011;37969;53.132;6.370;2023-08-12T06:35:40;21.42;;;15.07;;
51943;SDS011;37969;53.132;6.370;2023-08-12T06:38:06;19.75;;;14.70;;
51943;SDS011;37969;53.132;6.370;2023-08-12T06:40:34;24.15;;;15.43;;
51943;SDS011;37969;53.132;6.370;2023-08-12T06:43:01;21.48;;;15.75;;
51943;SDS011;37969;53.132;6.370;2023-08-12T06:45:27;23.42;;;14.93;;
51943;SDS011;37969;53.132;6.370;2023-08-12T06:47:53;21.88;;;16.65;;
51943;SDS011;37969;53.132;6.370;2023-08-12T06:50:19;28.20;;;16.05;;
51943;SDS011;37969;53.132;6.370;2023-08-12T06:52:46;21.65;;;14.93;;
51943;SDS011;37969;53.132;6.370;2023-08-12T06:55:12;32.13;;;16.90;;
51943;SDS011;37969;53.132;6.370;2023-08-12T06:57:38;26.45;;;17.27;;
51943;SDS011;37969;53.132;6.370;2023-08-12T07:00:04;28.05;;;19.73;;
51943;SDS011;37969;53.132;6.370;2023-08-12T07:02:31;24.50;;;17.88;;
51943;SDS011;37969;53.132;6.370;2023-08-12T07:04:57;28.35;;;18.40;;
51943;SDS011;37969;53.132;6.370;2023-08-12T07:07:23;28.10;;;17.52;;
51943;SDS011;37969;53.132;6.370;2023-08-12T07:09:49;31.23;;;18.65;;
51943;SDS011;37969;53.132;6.370;2023-08-12T07:12:15;28.85;;;18.05;;
51943;SDS011;37969;53.132;6.370;2023-08-12T07:14:44;31.83;;;19.13;;
51943;SDS011;37969;53.132;6.370;2023-08-12T07:17:10;27.45;;;17.42;;
51943;SDS011;37969;53.132;6.370;2023-08-12T07:19:37;29.35;;;19.80;;
51943;SDS011;37969;53.132;6.370;2023-08-12T07:22:06;30.83;;;19.55;;
51943;SDS011;37969;53.132;6.370;2023-08-12T07:26:58;27.52;;;19.15;;
51943;SDS011;37969;53.132;6.370;2023-08-12T07:29:25;40.00;;;20.08;;
51943;SDS011;37969;53.132;6.370;2023-08-12T07:31:53;34.60;;;21.27;;
51943;SDS011;37969;53.132;6.370;2023-08-12T07:34:20;31.98;;;19.98;;
51943;SDS011;37969;53.132;6.370;2023-08-12T07:36:46;30.25;;;19.75;;
51943;SDS011;37969;53.132;6.370;2023-08-12T07:39:12;30.50;;;20.80;;
51943;SDS011;37969;53.132;6.370;2023-08-12T07:41:38;28.58;;;19.90;;
51943;SDS011;37969;53.132;6.370;2023-08-12T07:44:05;33.72;;;21.17;;
51943;SDS011;37969;53.132;6.370;2023-08-12T07:46:31;33.50;;;21.55;;
51943;SDS011;37969;53.132;6.370;2023-08-12T07:48:57;34.63;;;21.35;;
51943;SDS011;37969;53.132;6.370;2023-08-12T07:51:24;28.10;;;19.15;;
51943;SDS011;37969;53.132;6.370;2023-08-12T07:53:50;30.80;;;20.45;;
51943;SDS011;37969;53.132;6.370;2023-08-12T07:56:19;34.65;;;22.45;;
51943;SDS011;37969;53.132;6.370;2023-08-12T07:58:45;26.73;;;20.02;;
51943;SDS011;37969;53.132;6.370;2023-08-12T08:01:15;29.10;;;19.70;;
51943;SDS011;37969;53.132;6.370;2023-08-12T08:03:41;30.02;;;20.42;;
51943;SDS011;37969;53.132;6.370;2023-08-12T08:06:07;30.85;;;20.95;;
51943;SDS011;37969;53.132;6.370;2023-08-12T08:08:34;26.35;;;20.33;;
51943;SDS011;37969;53.132;6.370;2023-08-12T08:11:00;28.67;;;20.10;;
51943;SDS011;37969;53.132;6.370;2023-08-12T08:13:26;30.83;;;21.10;;
51943;SDS011;37969;53.132;6.370;2023-08-12T08:15:52;29.00;;;20.65;;
51943;SDS011;37969;53.132;6.370;2023-08-12T08:18:19;29.13;;;19.55;;
51943;SDS011;37969;53.132;6.370;2023-08-12T08:20:45;30.75;;;19.50;;
51943;SDS011;37969;53.132;6.370;2023-08-12T08:23:11;29.85;;;19.08;;
51943;SDS011;37969;53.132;6.370;2023-08-12T08:25:38;28.35;;;19.33;;
51943;SDS011;37969;53.132;6.370;2023-08-12T08:28:04;29.38;;;19.30;;
51943;SDS011;37969;53.132;6.370;2023-08-12T08:30:30;24.20;;;18.17;;
51943;SDS011;37969;53.132;6.370;2023-08-12T08:32:56;25.48;;;18.23;;
51943;SDS011;37969;53.132;6.370;2023-08-12T08:35:22;24.52;;;17.15;;
51943;SDS011;37969;53.132;6.370;2023-08-12T08:37:49;29.98;;;18.48;;
51943;SDS011;37969;53.132;6.370;2023-08-12T08:40:15;29.48;;;19.95;;
51943;SDS011;37969;53.132;6.370;2023-08-12T08:42:41;30.90;;;20.10;;
51943;SDS011;37969;53.132;6.370;2023-08-12T08:45:12;30.02;;;20.27;;
51943;SDS011;37969;53.132;6.370;2023-08-12T08:47:39;29.02;;;20.45;;
51943;SDS011;37969;53.132;6.370;2023-08-12T08:50:06;31.10;;;21.55;;
51943;SDS011;37969;53.132;6.370;2023-08-12T08:52:34;41.65;;;25.02;;
51943;SDS011;37969;53.132;6.370;2023-08-12T08:55:01;44.42;;;26.63;;
51943;SDS011;37969;53.132;6.370;2023-08-12T08:57:27;36.38;;;24.98;;
51943;SDS011;37969;53.132;6.370;2023-08-12T08:59:54;36.58;;;25.13;;
51943;SDS011;37969;53.132;6.370;2023-08-12T09:02:20;50.85;;;25.92;;
51943;SDS011;37969;53.132;6.370;2023-08-12T09:04:47;36.53;;;24.45;;
51943;SDS011;37969;53.132;6.370;2023-08-12T09:07:13;41.60;;;25.60;;
51943;SDS011;37969;53.132;6.370;2023-08-12T09:09:41;39.25;;;26.67;;
51943;SDS011;37969;53.132;6.370;2023-08-12T09:12:10;42.95;;;33.00;;
51943;SDS011;37969;53.132;6.370;2023-08-12T09:14:37;39.03;;;27.42;;
51943;SDS011;37969;53.132;6.370;2023-08-12T09:17:03;44.95;;;30.55;;
51943;SDS011;37969;53.132;6.370;2023-08-12T09:19:29;37.42;;;27.55;;
51943;SDS011;37969;53.132;6.370;2023-08-12T09:21:55;42.97;;;30.42;;
51943;SDS011;37969;53.132;6.370;2023-08-12T09:24:25;52.80;;;30.40;;
51943;SDS011;37969;53.132;6.370;2023-08-12T09:26:51;40.72;;;26.63;;
51943;SDS011;37969;53.132;6.370;2023-08-12T09:29:17;44.30;;;29.40;;
51943;SDS011;37969;53.132;6.370;2023-08-12T09:31:44;42.92;;;28.60;;
51943;SDS011;37969;53.132;6.370;2023-08-12T09:34:10;45.40;;;33.22;;
51943;SDS011;37969;53.132;6.370;2023-08-12T09:36:36;46.85;;;33.30;;
51943;SDS011;37969;53.132;6.370;2023-08-12T09:39:07;49.65;;;36.83;;
51943;SDS011;37969;53.132;6.370;2023-08-12T09:41:34;42.65;;;32.58;;
51943;SDS011;37969;53.132;6.370;2023-08-12T09:44:02;35.05;;;25.15;;
51943;SDS011;37969;53.132;6.370;2023-08-12T09:46:29;34.92;;;27.13;;
51943;SDS011;37969;53.132;6.370;2023-08-12T09:48:58;38.55;;;27.67;;
51943;SDS011;37969;53.132;6.370;2023-08-12T09:51:24;31.95;;;24.90;;
51943;SDS011;37969;53.132;6.370;2023-08-12T09:53:51;32.55;;;24.70;;
51943;SDS011;37969;53.132;6.370;2023-08-12T09:56:18;27.85;;;23.20;;
51943;SDS011;37969;53.132;6.370;2023-08-12T09:58:47;31.30;;;23.13;;
51943;SDS011;37969;53.132;6.370;2023-08-12T10:01:13;27.65;;;21.83;;
51943;SDS011;37969;53.132;6.370;2023-08-12T10:06:09;25.35;;;20.52;;
51943;SDS011;37969;53.132;6.370;2023-08-12T10:08:35;24.23;;;18.73;;
51943;SDS011;37969;53.132;6.370;2023-08-12T10:11:01;30.00;;;23.80;;
51943;SDS011;37969;53.132;6.370;2023-08-12T10:13:28;22.70;;;19.27;;
51943;SDS011;37969;53.132;6.370;2023-08-12T10:15:54;25.75;;;19.77;;
51943;SDS011;37969;53.132;6.370;2023-08-12T10:18:20;21.10;;;17.98;;
51943;SDS011;37969;53.132;6.370;2023-08-12T10:20:48;25.15;;;20.50;;
51943;SDS011;37969;53.132;6.370;2023-08-12T10:23:15;24.77;;;18.63;;
51943;SDS011;37969;53.132;6.370;2023-08-12T10:25:42;25.27;;;17.88;;
51943;SDS011;37969;53.132;6.370;2023-08-12T10:28:09;22.58;;;19.63;;
51943;SDS011;37969;53.132;6.370;2023-08-12T10:30:35;24.92;;;19.67;;
51943;SDS011;37969;53.132;6.370;2023-08-12T10:33:02;21.05;;;16.13;;
51943;SDS011;37969;53.132;6.370;2023-08-12T10:35:43;16.55;;;14.00;;
51943;SDS011;37969;53.132;6.370;2023-08-12T10:38:13;14.48;;;12.68;;
51943;SDS011;37969;53.132;6.370;2023-08-12T10:40:39;16.95;;;13.00;;
51943;SDS011;37969;53.132;6.370;2023-08-12T10:43:06;15.55;;;13.95;;
51943;SDS011;37969;53.132;6.370;2023-08-12T10:45:42;15.38;;;13.68;;
51943;SDS011;37969;53.132;6.370;2023-08-12T10:48:09;12.88;;;11.57;;
51943;SDS011;37969;53.132;6.370;2023-08-12T10:50:43;11.77;;;10.25;;
51943;SDS011;37969;53.132;6.370;2023-08-12T10:55:36;9.32;;;8.32;;
51943;SDS011;37969;53.132;6.370;2023-08-12T10:58:05;8.97;;;7.93;;
51943;SDS011;37969;53.132;6.370;2023-08-12T11:00:34;9.15;;;7.63;;
51943;SDS011;37969;53.132;6.370;2023-08-12T11:03:02;8.18;;;7.38;;
51943;SDS011;37969;53.132;6.370;2023-08-12T11:05:36;9.15;;;6.57;;
51943;SDS011;37969;53.132;6.370;2023-08-12T11:08:02;8.60;;;6.78;;
51943;SDS011;37969;53.132;6.370;2023-08-12T11:10:32;8.40;;;6.65;;
51943;SDS011;37969;53.132;6.370;2023-08-12T11:12:58;4.22;;;3.83;;
51943;SDS011;37969;53.132;6.370;2023-08-12T11:15:29;6.32;;;5.03;;
51943;SDS011;37969;53.132;6.370;2023-08-12T11:17:58;7.95;;;5.20;;
51943;SDS011;37969;53.132;6.370;2023-08-12T11:20:24;13.90;;;3.40;;
51943;SDS011;37969;53.132;6.370;2023-08-12T11:22:50;5.22;;;2.83;;
51943;SDS011;37969;53.132;6.370;2023-08-12T11:25:17;5.25;;;3.67;;
51943;SDS011;37969;53.132;6.370;2023-08-12T11:27:44;10.70;;;3.92;;
51943;SDS011;37969;53.132;6.370;2023-08-12T11:30:11;9.07;;;4.00;;
51943;SDS011;37969;53.132;6.370;2023-08-12T11:32:40;6.68;;;3.67;;
51943;SDS011;37969;53.132;6.370;2023-08-12T11:35:07;10.00;;;4.50;;
51943;SDS011;37969;53.132;6.370;2023-08-12T11:37:35;10.05;;;4.13;;
51943;SDS011;37969;53.132;6.370;2023-08-12T11:40:04;11.95;;;4.10;;
51943;SDS011;37969;53.132;6.370;2023-08-12T11:42:30;10.30;;;3.85;;
51943;SDS011;37969;53.132;6.370;2023-08-12T11:44:57;8.38;;;4.18;;
51943;SDS011;37969;53.132;6.370;2023-08-12T11:47:23;9.85;;;3.58;;
51943;SDS011;37969;53.132;6.370;2023-08-12T11:49:49;9.25;;;3.88;;
51943;SDS011;37969;53.132;6.370;2023-08-12T11:52:15;8.90;;;3.33;;
51943;SDS011;37969;53.132;6.370;2023-08-12T11:54:42;9.82;;;4.10;;
51943;SDS011;37969;53.132;6.370;2023-08-12T11:57:08;9.85;;;3.28;;
51943;SDS011;37969;53.132;6.370;2023-08-12T11:59:35;11.65;;;3.42;;
51943;SDS011;37969;53.132;6.370;2023-08-12T12:02:01;11.43;;;4.05;;
51943;SDS011;37969;53.132;6.370;2023-08-12T12:04:30;13.32;;;4.60;;
51943;SDS011;37969;53.132;6.370;2023-08-12T12:06:56;10.05;;;4.10;;
51943;SDS011;37969;53.132;6.370;2023-08-12T12:09:22;11.13;;;4.03;;
51943;SDS011;37969;53.132;6.370;2023-08-12T12:11:52;7.35;;;3.53;;
51943;SDS011;37969;53.132;6.370;2023-08-12T12:14:18;10.00;;;3.47;;
51943;SDS011;37969;53.132;6.370;2023-08-12T12:16:46;8.25;;;3.50;;
51943;SDS011;37969;53.132;6.370;2023-08-12T12:19:19;7.78;;;3.40;;
51943;SDS011;37969;53.132;6.370;2023-08-12T12:21:46;8.50;;;3.22;;
51943;SDS011;37969;53.132;6.370;2023-08-12T12:24:13;5.20;;;2.85;;
51943;SDS011;37969;53.132;6.370;2023-08-12T12:26:39;7.70;;;2.83;;
51943;SDS011;37969;53.132;6.370;2023-08-12T12:29:06;4.35;;;2.58;;
51943;SDS011;37969;53.132;6.370;2023-08-12T12:31:33;8.85;;;2.92;;
51943;SDS011;37969;53.132;6.370;2023-08-12T12:34:00;8.80;;;3.35;;
51943;SDS011;37969;53.132;6.370;2023-08-12T12:36:26;7.53;;;2.78;;
51943;SDS011;37969;53.132;6.370;2023-08-12T12:38:53;7.90;;;2.95;;
51943;SDS011;37969;53.132;6.370;2023-08-12T12:41:19;12.82;;;3.17;;
51943;SDS011;37969;53.132;6.370;2023-08-12T12:43:45;9.98;;;3.38;;
51943;SDS011;37969;53.132;6.370;2023-08-12T12:46:11;7.65;;;3.67;;
51943;SDS011;37969;53.132;6.370;2023-08-12T12:48:37;10.73;;;3.53;;
51943;SDS011;37969;53.132;6.370;2023-08-12T12:51:04;11.30;;;3.80;;
51943;SDS011;37969;53.132;6.370;2023-08-12T12:53:30;9.20;;;4.10;;
51943;SDS011;37969;53.132;6.370;2023-08-12T12:55:56;9.57;;;4.05;;
51943;SDS011;37969;53.132;6.370;2023-08-12T12:58:25;10.95;;;4.45;;
51943;SDS011;37969;53.132;6.370;2023-08-12T13:00:51;7.80;;;4.15;;
51943;SDS011;37969;53.132;6.370;2023-08-12T13:03:17;12.13;;;4.50;;
51943;SDS011;37969;53.132;6.370;2023-08-12T13:05:43;8.38;;;4.43;;
51943;SDS011;37969;53.132;6.370;2023-08-12T13:08:10;11.63;;;4.10;;
51943;SDS011;37969;53.132;6.370;2023-08-12T13:10:36;9.77;;;4.15;;
51943;SDS011;37969;53.132;6.370;2023-08-12T13:13:02;11.60;;;4.25;;
51943;SDS011;37969;53.132;6.370;2023-08-12T13:15:28;13.48;;;4.30;;
51943;SDS011;37969;53.132;6.370;2023-08-12T13:17:55;12.88;;;4.57;;
51943;SDS011;37969;53.132;6.370;2023-08-12T13:20:21;7.82;;;3.50;;
51943;SDS011;37969;53.132;6.370;2023-08-12T13:22:47;10.07;;;3.67;;
51943;SDS011;37969;53.132;6.370;2023-08-12T13:25:13;9.25;;;3.35;;
51943;SDS011;37969;53.132;6.370;2023-08-12T13:27:40;9.88;;;3.30;;
51943;SDS011;37969;53.132;6.370;2023-08-12T13:30:06;10.38;;;3.30;;
51943;SDS011;37969;53.132;6.370;2023-08-12T13:32:32;7.53;;;3.40;;
51943;SDS011;37969;53.132;6.370;2023-08-12T13:34:58;11.70;;;3.03;;
51943;SDS011;37969;53.132;6.370;2023-08-12T13:37:24;14.57;;;3.97;;
51943;SDS011;37969;53.132;6.370;2023-08-12T13:39:51;14.30;;;4.00;;
51943;SDS011;37969;53.132;6.370;2023-08-12T13:42:17;11.02;;;3.47;;
51943;SDS011;37969;53.132;6.370;2023-08-12T13:44:43;14.35;;;3.22;;
51943;SDS011;37969;53.132;6.370;2023-08-12T13:47:09;13.55;;;3.65;;
51943;SDS011;37969;53.132;6.370;2023-08-12T13:49:35;11.15;;;3.13;;
51943;SDS011;37969;53.132;6.370;2023-08-12T13:52:01;13.07;;;3.03;;
51943;SDS011;37969;53.132;6.370;2023-08-12T13:54:28;10.05;;;2.90;;
51943;SDS011;37969;53.132;6.370;2023-08-12T13:56:54;8.05;;;2.50;;
51943;SDS011;37969;53.132;6.370;2023-08-12T13:59:20;7.10;;;2.40;;
51943;SDS011;37969;53.132;6.370;2023-08-12T14:01:46;9.32;;;2.75;;
51943;SDS011;37969;53.132;6.370;2023-08-12T14:04:12;9.48;;;2.38;;
51943;SDS011;37969;53.132;6.370;2023-08-12T14:06:38;9.68;;;2.58;;
51943;SDS011;37969;53.132;6.370;2023-08-12T14:09:05;10.63;;;2.45;;
51943;SDS011;37969;53.132;6.370;2023-08-12T14:11:33;10.00;;;2.55;;
51943;SDS011;37969;53.132;6.370;2023-08-12T14:13:59;10.40;;;2.83;;
51943;SDS011;37969;53.132;6.370;2023-08-12T14:16:25;7.78;;;2.40;;
51943;SDS011;37969;53.132;6.370;2023-08-12T14:18:51;9.63;;;2.47;;
51943;SDS011;37969;53.132;6.370;2023-08-12T14:21:18;9.00;;;3.03;;
51943;SDS011;37969;53.132;6.370;2023-08-12T14:23:44;11.18;;;2.42;;
51943;SDS011;37969;53.132;6.370;2023-08-12T14:26:10;8.68;;;2.63;;
51943;SDS011;37969;53.132;6.370;2023-08-12T14:28:36;7.10;;;2.88;;
51943;SDS011;37969;53.132;6.370;2023-08-12T14:31:02;8.50;;;2.72;;
51943;SDS011;37969;53.132;6.370;2023-08-12T14:33:28;10.95;;;2.80;;
51943;SDS011;37969;53.132;6.370;2023-08-12T14:35:58;7.47;;;2.20;;